Terminal Aerodrome Forecast
Issued by NWS

Home | Current Version | Previous Version | Text Only | Print | Product List | Glossary On
Versions: 1 2 3 4 5 6 7 8 9 10 11 12 13 14 15
000
FTUS43 KPAH 201120
TAFCGI
TAF
KCGI 201120Z 2012/2112 18011KT 4SM TSRA BR OVC018CB
      TEMPO 2012/2013 29020G30KT 2SM +TSRA OVC028CB
     FM201500 19008KT P6SM -SHRA BKN060
     FM202200 19009KT P6SM VCTS SCT040CB BKN100
     FM210300 19005KT P6SM BKN100
     FM210900 29006KT P6SM BKN070=

USA.gov is the U.S. government's official web portal to all federal, state and local government web resources and services.